Time;durP1;ratioP1;P1;durP2;ratioP2;P2;SDS_P1;SDS_P2;PMS_P1;PMS_P2;Temp;Humidity;BMP_temperature;BMP_pressure;BME280_temperature;BME280_humidity;BME280_pressure;Samples;Min_cycle;Max_cycle;Signal;HPM_P1;HPM_P2
2023/01/09 00:01:34;;;;;;;115.20;81.32;;;;;;;;;;5087437;28;20119;-75
2023/01/09 00:04:00;;;;;;;97.68;65.97;;;;;;;;;;5090513;28;20028;-73
2023/01/09 00:06:25;;;;;;;105.63;71.00;;;;;;;;;;5086292;28;20035;-74
2023/01/09 00:08:51;;;;;;;116.13;79.50;;;;;;;;;;5082713;28;20027;-73
2023/01/09 00:11:16;;;;;;;102.90;66.50;;;;;;;;;;5094865;28;20012;-75
2023/01/09 00:13:41;;;;;;;101.93;66.70;;;;;;;;;;5082277;28;20027;-73
2023/01/09 00:16:07;;;;;;;121.70;76.22;;;;;;;;;;5086883;28;20040;-75
2023/01/09 00:18:33;;;;;;;120.30;73.90;;;;;;;;;;5084870;28;20024;-74
2023/01/09 00:21:19;;;;;;;99.03;66.03;;;;;;;;;;5094144;28;20100;-74
2023/01/09 00:23:44;;;;;;;125.25;81.30;;;;;;;;;;5080864;28;20401;-74
2023/01/09 00:26:42;;;;;;;110.63;71.15;;;;;;;;;;5094438;28;20114;-73
2023/01/09 00:29:09;;;;;;;91.15;59.85;;;;;;;;;;5093294;28;20081;-74
2023/01/09 00:31:34;;;;;;;100.65;64.10;;;;;;;;;;5094258;28;20052;-74
2023/01/09 00:34:01;;;;;;;100.13;66.07;;;;;;;;;;5096212;28;20023;-73
2023/01/09 00:36:27;;;;;;;96.93;66.13;;;;;;;;;;5093161;28;20310;-76
2023/01/09 00:38:52;;;;;;;93.80;62.65;;;;;;;;;;5080541;28;20427;-75
2023/01/09 00:41:21;;;;;;;93.15;62.55;;;;;;;;;;5093236;28;20077;-75
2023/01/09 00:43:49;;;;;;;86.60;61.50;;;;;;;;;;5078682;28;20016;-74
2023/01/09 00:46:15;;;;;;;87.85;60.42;;;;;;;;;;5091532;28;20039;-75
2023/01/09 00:48:41;;;;;;;93.80;62.35;;;;;;;;;;5093651;28;20039;-76
2023/01/09 00:51:07;;;;;;;92.40;60.17;;;;;;;;;;5092367;28;20023;-75
2023/01/09 00:53:33;;;;;;;90.82;56.40;;;;;;;;;;5097003;28;20473;-74
2023/01/09 00:56:00;;;;;;;85.15;52.13;;;;;;;;;;5091229;28;20028;-74
2023/01/09 00:58:25;;;;;;;90.90;58.22;;;;;;;;;;5087556;28;20484;-74
2023/01/09 01:00:50;;;;;;;93.53;59.78;;;;;;;;;;5094026;28;20020;-77
2023/01/09 01:03:16;;;;;;;105.82;64.35;;;;;;;;;;5093431;28;20084;-74
2023/01/09 01:08:25;;;;;;;108.10;64.45;;;;;;;;;;5095476;28;20042;-74
2023/01/09 01:10:51;;;;;;;106.50;63.80;;;;;;;;;;5090734;28;20023;-73
2023/01/09 01:13:16;;;;;;;118.68;67.82;;;;;;;;;;5082338;28;20035;-74
2023/01/09 01:15:42;;;;;;;114.45;69.55;;;;;;;;;;5094377;28;20170;-73
2023/01/09 01:18:08;;;;;;;134.18;74.82;;;;;;;;;;5074337;28;20019;-77
2023/01/09 01:20:34;;;;;;;144.88;76.75;;;;;;;;;;5093605;28;20094;-74
2023/01/09 01:22:59;;;;;;;124.57;68.05;;;;;;;;;;5092605;28;21078;-75
2023/01/09 01:25:24;;;;;;;125.28;69.95;;;;;;;;;;5096658;28;20035;-74
2023/01/09 01:27:50;;;;;;;142.95;76.97;;;;;;;;;;5081343;28;20087;-74
2023/01/09 01:30:16;;;;;;;144.48;80.00;;;;;;;;;;5091389;28;20161;-75
2023/01/09 01:32:41;;;;;;;140.93;73.90;;;;;;;;;;5091949;28;20024;-74
2023/01/09 01:35:07;;;;;;;147.77;77.78;;;;;;;;;;5090638;28;20354;-74
2023/01/09 01:37:32;;;;;;;141.88;72.60;;;;;;;;;;5094579;28;20016;-75
2023/01/09 01:39:58;;;;;;;133.20;66.95;;;;;;;;;;5092721;28;20102;-75
2023/01/09 01:42:23;;;;;;;134.02;67.03;;;;;;;;;;5092327;28;20200;-77
2023/01/09 01:45:00;;;;;;;119.65;62.78;;;;;;;;;;5083264;28;20742;-75
2023/01/09 01:47:41;;;;;;;127.43;64.95;;;;;;;;;;5080823;28;20019;-75
2023/01/09 01:50:13;;;;;;;116.25;61.00;;;;;;;;;;5095024;28;20019;-75
2023/01/09 01:52:38;;;;;;;115.45;61.05;;;;;;;;;;5094937;28;20414;-75
2023/01/09 01:55:05;;;;;;;114.25;62.53;;;;;;;;;;5094382;28;20043;-74
2023/01/09 01:57:31;;;;;;;233.48;88.38;;;;;;;;;;5096064;28;20032;-75
2023/01/09 01:59:58;;;;;;;142.73;76.60;;;;;;;;;;5094416;28;20043;-75
2023/01/09 02:02:26;;;;;;;199.95;92.65;;;;;;;;;;5075601;28;20127;-75
2023/01/09 02:04:52;;;;;;;140.52;72.32;;;;;;;;;;5084035;28;20032;-73
2023/01/09 02:07:17;;;;;;;131.02;69.95;;;;;;;;;;5092761;28;20023;-75
2023/01/09 02:09:45;;;;;;;150.82;71.82;;;;;;;;;;5078286;28;20027;-75
2023/01/09 02:12:16;;;;;;;113.20;57.28;;;;;;;;;;5083634;28;20038;-74
2023/01/09 02:14:41;;;;;;;85.47;47.72;;;;;;;;;;5085992;28;20450;-73
2023/01/09 02:17:23;;;;;;;89.82;49.53;;;;;;;;;;5088512;28;20028;-74
2023/01/09 02:20:07;;;;;;;87.85;48.88;;;;;;;;;;5085688;28;20260;-73
2023/01/09 02:22:48;;;;;;;80.88;46.92;;;;;;;;;;5092990;28;20427;-74
2023/01/09 02:25:31;;;;;;;98.45;51.10;;;;;;;;;;5092540;28;20035;-76
2023/01/09 02:28:17;;;;;;;122.35;56.13;;;;;;;;;;5093593;28;20027;-76
2023/01/09 02:30:45;;;;;;;84.65;47.92;;;;;;;;;;5075181;28;20047;-74
2023/01/09 02:33:19;;;;;;;105.32;52.47;;;;;;;;;;5077218;28;20382;-74
2023/01/09 02:35:45;;;;;;;95.30;51.00;;;;;;;;;;5085331;28;20032;-75
2023/01/09 02:38:19;;;;;;;94.97;45.72;;;;;;;;;;5093995;28;20026;-75
2023/01/09 02:40:56;;;;;;;111.18;49.63;;;;;;;;;;5092387;28;20020;-73
2023/01/09 02:43:22;;;;;;;100.82;51.17;;;;;;;;;;5094600;28;20028;-74
2023/01/09 02:45:47;;;;;;;94.32;52.90;;;;;;;;;;5093454;28;20032;-73
2023/01/09 02:48:12;;;;;;;99.18;52.63;;;;;;;;;;5080536;28;20347;-73
2023/01/09 02:50:41;;;;;;;108.20;58.28;;;;;;;;;;5085618;28;20031;-75
2023/01/09 02:53:29;;;;;;;93.35;50.60;;;;;;;;;;5086683;28;20032;-72
2023/01/09 02:56:02;;;;;;;85.88;46.58;;;;;;;;;;5087761;28;20044;-74
2023/01/09 02:58:49;;;;;;;92.43;52.22;;;;;;;;;;5092491;28;20043;-74
2023/01/09 03:01:27;;;;;;;83.20;46.70;;;;;;;;;;5095839;28;20044;-73
2023/01/09 03:04:03;;;;;;;85.53;47.53;;;;;;;;;;5083359;28;20031;-73
2023/01/09 03:06:32;;;;;;;85.70;47.17;;;;;;;;;;5096545;28;20023;-73
2023/01/09 03:09:00;;;;;;;89.13;49.47;;;;;;;;;;5095538;28;20020;-74
2023/01/09 03:11:27;;;;;;;106.15;55.30;;;;;;;;;;5092813;28;20038;-74
2023/01/09 03:13:53;;;;;;;110.45;53.65;;;;;;;;;;5084764;28;20482;-74
2023/01/09 03:16:28;;;;;;;106.70;54.05;;;;;;;;;;5099140;28;20063;-74
2023/01/09 03:18:55;;;;;;;111.35;53.35;;;;;;;;;;5081860;28;20051;-74
2023/01/09 03:21:21;;;;;;;128.25;61.65;;;;;;;;;;5094093;28;20036;-75
2023/01/09 03:23:51;;;;;;;144.38;64.10;;;;;;;;;;5095122;28;20084;-76
2023/01/09 03:26:16;;;;;;;;;;;;;;;;;;5094653;28;20088;-75
2023/01/09 03:28:42;;;;;;;126.40;63.97;;;;;;;;;;5095133;28;19999;-73
2023/01/09 03:31:07;;;;;;;145.52;62.03;;;;;;;;;;5095874;28;20039;-74
2023/01/09 03:33:32;;;;;;;115.75;59.70;;;;;;;;;;5083728;28;20137;-74
2023/01/09 03:35:57;;;;;;;120.20;58.88;;;;;;;;;;5084073;28;20039;-73
2023/01/09 03:38:23;;;;;;;125.03;60.92;;;;;;;;;;5088459;28;20457;-74
2023/01/09 03:40:48;;;;;;;125.95;64.05;;;;;;;;;;5096891;28;20057;-74
2023/01/09 03:43:13;;;;;;;133.55;54.80;;;;;;;;;;5095228;28;20035;-74
2023/01/09 03:45:39;;;;;;;116.50;54.03;;;;;;;;;;5085309;28;20037;-76
2023/01/09 03:48:04;;;;;;;113.85;54.63;;;;;;;;;;5093734;28;20342;-75
2023/01/09 03:50:29;;;;;;;115.85;58.50;;;;;;;;;;5094801;28;20128;-73
2023/01/09 03:52:55;;;;;;;122.85;60.53;;;;;;;;;;5098002;28;20027;-76
2023/01/09 03:55:20;;;;;;;121.95;65.57;;;;;;;;;;5099131;28;20044;-74
2023/01/09 03:57:45;;;;;;;122.43;56.10;;;;;;;;;;5099033;28;20020;-74
2023/01/09 04:00:11;;;;;;;113.20;55.88;;;;;;;;;;5094962;28;20181;-74
2023/01/09 04:02:36;;;;;;;98.20;51.63;;;;;;;;;;5092313;28;20458;-74
2023/01/09 04:05:01;;;;;;;114.45;57.00;;;;;;;;;;5086426;28;20036;-73
2023/01/09 04:07:27;;;;;;;109.05;57.78;;;;;;;;;;5093637;28;20035;-73
2023/01/09 04:09:52;;;;;;;141.52;76.43;;;;;;;;;;5095891;28;20074;-74
2023/01/09 04:12:17;;;;;;;116.63;62.50;;;;;;;;;;5098884;28;20028;-73
2023/01/09 04:14:42;;;;;;;128.02;67.10;;;;;;;;;;5077285;28;20028;-73
2023/01/09 04:17:08;;;;;;;132.68;66.72;;;;;;;;;;5097180;28;20024;-75
2023/01/09 04:19:33;;;;;;;109.85;61.70;;;;;;;;;;5095882;28;20057;-74
2023/01/09 04:21:58;;;;;;;115.32;59.35;;;;;;;;;;5095487;28;20756;-74
2023/01/09 04:24:23;;;;;;;99.22;51.83;;;;;;;;;;5097985;28;20028;-73
2023/01/09 04:26:49;;;;;;;87.70;46.30;;;;;;;;;;5094258;28;20028;-75
2023/01/09 04:29:14;;;;;;;80.60;41.88;;;;;;;;;;5097852;28;20406;-75
2023/01/09 04:31:39;;;;;;;90.15;50.80;;;;;;;;;;5097609;28;20080;-73
2023/01/09 04:34:05;;;;;;;119.22;60.47;;;;;;;;;;5084484;28;20024;-73
2023/01/09 04:36:33;;;;;;;112.70;57.08;;;;;;;;;;5083054;28;20092;-73
2023/01/09 04:38:58;;;;;;;98.35;51.03;;;;;;;;;;5095445;28;20059;-73
2023/01/09 04:44:07;;;;;;;106.18;45.92;;;;;;;;;;5095849;28;20038;-77
2023/01/09 04:46:32;;;;;;;90.80;43.25;;;;;;;;;;5094660;28;20110;-73
2023/01/09 04:48:58;;;;;;;109.75;53.58;;;;;;;;;;5094759;28;20020;-74
2023/01/09 04:51:23;;;;;;;106.25;57.83;;;;;;;;;;5093585;28;20114;-72
2023/01/09 04:53:48;;;;;;;112.07;56.70;;;;;;;;;;5087778;28;20032;-75
2023/01/09 04:56:14;;;;;;;82.82;44.75;;;;;;;;;;5072523;28;20044;-76
2023/01/09 04:58:39;;;;;;;91.03;46.22;;;;;;;;;;5071856;28;20051;-74
2023/01/09 05:01:04;;;;;;;118.20;58.33;;;;;;;;;;5070319;28;20064;-74
2023/01/09 05:03:30;;;;;;;113.38;54.92;;;;;;;;;;5073803;28;20047;-75
2023/01/09 05:05:55;;;;;;;100.50;54.05;;;;;;;;;;5073209;28;20028;-75
2023/01/09 05:08:20;;;;;;;85.25;48.33;;;;;;;;;;5076390;28;20111;-74
2023/01/09 05:10:45;;;;;;;94.82;49.60;;;;;;;;;;5074122;28;20024;-74
2023/01/09 05:13:11;;;;;;;66.95;39.72;;;;;;;;;;5075884;28;20032;-73
2023/01/09 05:15:36;;;;;;;79.40;42.75;;;;;;;;;;5080801;28;20451;-73
2023/01/09 05:18:01;;;;;;;70.60;37.55;;;;;;;;;;5091216;28;20077;-76
2023/01/09 05:20:27;;;;;;;88.85;48.40;;;;;;;;;;5096323;28;20042;-73
2023/01/09 05:22:52;;;;;;;75.18;46.20;;;;;;;;;;5084230;28;20034;-73
2023/01/09 05:25:17;;;;;;;75.13;38.50;;;;;;;;;;5094626;28;20023;-73
2023/01/09 05:27:45;;;;;;;82.63;46.88;;;;;;;;;;5094839;28;20023;-73
2023/01/09 05:30:11;;;;;;;64.07;39.03;;;;;;;;;;5093866;28;20028;-75
2023/01/09 05:32:36;;;;;;;82.78;45.42;;;;;;;;;;5080356;28;20063;-74
2023/01/09 05:35:01;;;;;;;74.75;44.75;;;;;;;;;;5095381;28;20035;-74
2023/01/09 05:37:26;;;;;;;68.65;42.88;;;;;;;;;;5088052;28;20089;-74
2023/01/09 05:39:52;;;;;;;72.60;42.55;;;;;;;;;;5079136;28;20057;-76
2023/01/09 05:42:17;;;;;;;77.35;44.75;;;;;;;;;;5092056;28;20042;-75
2023/01/09 05:44:42;;;;;;;72.57;46.10;;;;;;;;;;5076084;28;20362;-73
2023/01/09 05:47:08;;;;;;;84.95;51.15;;;;;;;;;;5094891;28;20020;-75
2023/01/09 05:49:33;;;;;;;93.22;57.90;;;;;;;;;;5093900;28;20027;-74
2023/01/09 05:51:58;;;;;;;94.22;55.35;;;;;;;;;;5093808;28;20038;-74
2023/01/09 05:54:24;;;;;;;95.53;54.80;;;;;;;;;;5091243;28;20039;-74
2023/01/09 05:56:49;;;;;;;82.28;45.15;;;;;;;;;;5080752;28;20062;-75
2023/01/09 05:59:14;;;;;;;115.70;69.57;;;;;;;;;;5091819;28;20052;-75
2023/01/09 06:01:39;;;;;;;100.50;55.67;;;;;;;;;;5092022;28;20504;-73
2023/01/09 06:04:05;;;;;;;99.00;58.50;;;;;;;;;;5093986;28;20057;-73
2023/01/09 06:06:30;;;;;;;85.93;51.05;;;;;;;;;;5092505;28;20032;-75
2023/01/09 06:08:55;;;;;;;108.82;66.30;;;;;;;;;;5093718;28;20023;-75
2023/01/09 06:11:21;;;;;;;116.82;70.15;;;;;;;;;;5090172;28;20043;-76
2023/01/09 06:13:46;;;;;;;85.05;52.70;;;;;;;;;;5090244;28;20038;-73
2023/01/09 06:16:12;;;;;;;94.30;57.97;;;;;;;;;;5094571;28;20032;-75
2023/01/09 06:18:37;;;;;;;103.15;60.85;;;;;;;;;;5094493;28;20023;-73
2023/01/09 06:21:03;;;;;;;97.88;57.10;;;;;;;;;;5095834;28;20367;-74
2023/01/09 06:23:28;;;;;;;105.35;62.17;;;;;;;;;;5094798;28;20457;-73
2023/01/09 06:25:53;;;;;;;208.50;117.05;;;;;;;;;;5093462;28;20511;-74
2023/01/09 06:28:19;;;;;;;463.38;278.63;;;;;;;;;;5094182;28;20046;-74
2023/01/09 06:30:44;;;;;;;240.23;146.05;;;;;;;;;;5096824;28;20098;-74
2023/01/09 06:33:09;;;;;;;195.32;122.18;;;;;;;;;;5096641;28;20027;-74
2023/01/09 06:35:34;;;;;;;200.38;121.43;;;;;;;;;;5096702;28;20028;-74
2023/01/09 06:38:01;;;;;;;186.23;106.55;;;;;;;;;;5100088;28;20024;-75
2023/01/09 06:40:27;;;;;;;194.43;110.50;;;;;;;;;;5100457;28;20050;-75
2023/01/09 06:42:52;;;;;;;147.90;80.63;;;;;;;;;;5096301;28;20439;-74
2023/01/09 06:45:17;;;;;;;124.05;68.50;;;;;;;;;;5096979;28;20363;-74
2023/01/09 06:47:43;;;;;;;112.80;56.40;;;;;;;;;;5096283;28;20103;-74
2023/01/09 06:50:08;;;;;;;138.13;81.90;;;;;;;;;;5097123;28;20019;-74
2023/01/09 06:52:34;;;;;;;175.65;108.85;;;;;;;;;;5094640;28;20095;-75
2023/01/09 06:55:00;;;;;;;195.70;121.78;;;;;;;;;;5097976;28;20019;-75
2023/01/09 06:57:26;;;;;;;221.32;122.22;;;;;;;;;;5100013;28;20035;-74
2023/01/09 06:59:51;;;;;;;152.40;83.75;;;;;;;;;;5099091;28;20489;-75
2023/01/09 07:02:18;;;;;;;124.55;68.60;;;;;;;;;;5098146;28;20055;-74
2023/01/09 07:04:43;;;;;;;228.98;89.43;;;;;;;;;;5101792;28;20024;-74
2023/01/09 07:07:08;;;;;;;223.25;91.70;;;;;;;;;;5101120;28;20443;-74
2023/01/09 07:09:35;;;;;;;173.25;80.30;;;;;;;;;;5096100;28;20046;-75
2023/01/09 07:12:00;;;;;;;141.23;76.68;;;;;;;;;;5098767;28;20370;-74
2023/01/09 07:14:25;;;;;;;112.82;64.57;;;;;;;;;;5099452;28;20027;-77
2023/01/09 07:16:51;;;;;;;133.20;75.43;;;;;;;;;;5095694;28;20023;-74
2023/01/09 07:19:16;;;;;;;134.60;79.75;;;;;;;;;;5099220;28;20187;-74
2023/01/09 07:21:41;;;;;;;148.60;84.55;;;;;;;;;;5099636;28;20026;-75
2023/01/09 07:24:07;;;;;;;129.60;82.45;;;;;;;;;;5094528;28;20016;-74
2023/01/09 07:26:32;;;;;;;180.02;111.65;;;;;;;;;;5096395;28;20024;-75
2023/01/09 07:28:57;;;;;;;133.85;78.32;;;;;;;;;;5098227;28;20396;-74
2023/01/09 07:31:23;;;;;;;158.35;93.70;;;;;;;;;;5095917;28;20498;-75
2023/01/09 07:33:48;;;;;;;184.05;109.78;;;;;;;;;;5094797;28;20438;-73
2023/01/09 07:36:13;;;;;;;163.65;94.50;;;;;;;;;;5096864;28;20042;-75
2023/01/09 07:38:38;;;;;;;190.13;122.15;;;;;;;;;;5092909;28;20027;-74
2023/01/09 07:41:04;;;;;;;165.73;102.43;;;;;;;;;;5095469;28;20028;-74
2023/01/09 07:43:29;;;;;;;184.13;119.70;;;;;;;;;;5096617;28;20020;-74
2023/01/09 07:45:55;;;;;;;418.90;271.33;;;;;;;;;;5096878;28;20034;-74
2023/01/09 07:48:20;;;;;;;176.40;113.45;;;;;;;;;;5096391;28;20020;-75
2023/01/09 07:50:45;;;;;;;254.52;134.02;;;;;;;;;;5098037;28;20107;-73
2023/01/09 07:53:11;;;;;;;180.77;98.00;;;;;;;;;;5097946;28;20020;-75
2023/01/09 07:55:36;;;;;;;168.35;112.57;;;;;;;;;;5099162;28;20048;-73
2023/01/09 07:58:01;;;;;;;93.13;55.58;;;;;;;;;;5097571;28;20103;-74
2023/01/09 08:00:27;;;;;;;179.00;111.63;;;;;;;;;;5096597;28;20089;-76
2023/01/09 08:02:52;;;;;;;103.60;59.75;;;;;;;;;;5097210;28;20031;-74
2023/01/09 08:05:18;;;;;;;119.22;66.38;;;;;;;;;;5096368;28;20034;-76
2023/01/09 08:07:43;;;;;;;205.68;118.13;;;;;;;;;;5097294;28;20026;-75
2023/01/09 08:10:09;;;;;;;177.77;112.70;;;;;;;;;;5095585;28;20028;-73
2023/01/09 08:12:34;;;;;;;133.18;77.88;;;;;;;;;;5097204;28;20645;-74
2023/01/09 08:15:00;;;;;;;201.60;92.88;;;;;;;;;;5096506;28;20022;-73
2023/01/09 08:17:25;;;;;;;173.10;98.50;;;;;;;;;;5095991;28;20039;-74
2023/01/09 08:19:50;;;;;;;174.27;112.35;;;;;;;;;;5096132;28;20023;-74
2023/01/09 08:22:15;;;;;;;201.02;128.45;;;;;;;;;;5096625;28;20565;-76
2023/01/09 08:24:41;;;;;;;211.00;124.85;;;;;;;;;;5096404;28;20020;-74
2023/01/09 08:27:06;;;;;;;203.20;121.18;;;;;;;;;;5095321;28;20072;-74
2023/01/09 08:29:32;;;;;;;165.48;103.20;;;;;;;;;;5098460;28;20031;-75
2023/01/09 08:31:57;;;;;;;199.95;122.15;;;;;;;;;;5096997;28;20427;-74
2023/01/09 08:34:22;;;;;;;130.77;75.47;;;;;;;;;;5094719;28;20031;-75
2023/01/09 08:36:48;;;;;;;135.73;80.43;;;;;;;;;;5096587;28;20036;-73
2023/01/09 08:39:13;;;;;;;129.18;74.97;;;;;;;;;;5095415;28;20401;-75
2023/01/09 08:47:06;;;;;;;95.15;54.95;;;;;;;;;;5095282;28;20034;-75
2023/01/09 08:49:36;;;;;;;110.45;64.25;;;;;;;;;;5093555;28;20023;-76
2023/01/09 08:52:01;;;;;;;143.80;85.72;;;;;;;;;;5094221;28;20390;-74
2023/01/09 08:54:26;;;;;;;120.43;75.07;;;;;;;;;;5096046;28;20692;-74
2023/01/09 08:56:52;;;;;;;117.35;70.07;;;;;;;;;;5094367;28;20536;-75
2023/01/09 08:59:17;;;;;;;119.90;73.55;;;;;;;;;;5095474;28;20105;-73
2023/01/09 09:01:42;;;;;;;169.00;98.20;;;;;;;;;;5093678;28;20020;-74
2023/01/09 09:04:08;;;;;;;131.82;75.10;;;;;;;;;;5096478;28;20084;-75
2023/01/09 09:06:33;;;;;;;91.70;49.67;;;;;;;;;;5094901;28;20224;-75
2023/01/09 09:09:02;;;;;;;73.75;43.50;;;;;;;;;;5097137;28;20454;-73
2023/01/09 09:11:28;;;;;;;101.03;56.60;;;;;;;;;;5095993;28;20404;-75
2023/01/09 09:13:53;;;;;;;116.70;74.07;;;;;;;;;;5093018;28;20232;-75
2023/01/09 09:16:18;;;;;;;149.35;91.63;;;;;;;;;;5094695;28;20118;-74
2023/01/09 09:18:44;;;;;;;135.57;89.72;;;;;;;;;;5096732;28;20035;-74
2023/01/09 09:21:10;;;;;;;114.57;84.22;;;;;;;;;;5094814;28;20015;-75
2023/01/09 09:23:35;;;;;;;176.80;123.20;;;;;;;;;;5096444;28;20024;-73
2023/01/09 09:26:00;;;;;;;140.10;98.68;;;;;;;;;;5096707;28;20027;-74
2023/01/09 09:28:26;;;;;;;123.57;83.93;;;;;;;;;;5093479;28;20016;-74
2023/01/09 09:30:51;;;;;;;101.35;62.90;;;;;;;;;;5096365;28;20412;-75
2023/01/09 09:33:16;;;;;;;110.25;73.60;;;;;;;;;;5094817;28;20074;-73
2023/01/09 09:35:41;;;;;;;85.28;55.90;;;;;;;;;;5095222;28;20042;-76
2023/01/09 09:38:07;;;;;;;103.68;67.03;;;;;;;;;;5094714;28;20023;-73
2023/01/09 09:40:51;;;;;;;187.45;114.18;;;;;;;;;;5095454;28;20637;-73
2023/01/09 09:46:14;;;;;;;131.02;79.45;;;;;;;;;;5094153;28;20047;-73
2023/01/09 09:48:54;;;;;;;142.23;80.80;;;;;;;;;;5095757;28;20023;-74
2023/01/09 09:51:20;;;;;;;115.13;73.20;;;;;;;;;;5094054;28;20031;-73
2023/01/09 09:53:54;;;;;;;113.20;83.03;;;;;;;;;;5095975;28;20074;-74
2023/01/09 09:56:20;;;;;;;79.40;58.25;;;;;;;;;;5093499;28;20071;-72
2023/01/09 09:58:58;;;;;;;63.78;45.50;;;;;;;;;;5095554;28;20474;-74
2023/01/09 10:01:25;;;;;;;69.93;49.90;;;;;;;;;;5096026;28;20028;-73
2023/01/09 10:03:53;;;;;;;76.90;55.33;;;;;;;;;;5094230;28;20023;-72
2023/01/09 10:06:22;;;;;;;109.60;77.78;;;;;;;;;;5092532;28;20049;-72
2023/01/09 10:08:52;;;;;;;122.70;84.32;;;;;;;;;;5092973;28;20335;-71
2023/01/09 10:11:37;;;;;;;210.48;126.97;;;;;;;;;;5096380;28;20060;-73
2023/01/09 10:14:05;;;;;;;324.38;185.63;;;;;;;;;;5074349;28;20031;-73
2023/01/09 10:16:47;;;;;;;117.93;79.45;;;;;;;;;;5094044;28;20130;-74
2023/01/09 10:19:23;;;;;;;104.63;69.85;;;;;;;;;;5095458;28;20011;-72
2023/01/09 10:21:51;;;;;;;74.20;53.72;;;;;;;;;;5095638;28;20386;-72
2023/01/09 10:24:23;;;;;;;118.22;87.80;;;;;;;;;;5077043;28;20032;-72
2023/01/09 10:26:52;;;;;;;128.40;98.53;;;;;;;;;;5094421;28;20044;-72
2023/01/09 10:29:30;;;;;;;88.45;64.50;;;;;;;;;;5095959;28;20027;-73
2023/01/09 10:31:58;;;;;;;82.05;59.58;;;;;;;;;;5094174;28;20032;-72
2023/01/09 10:34:43;;;;;;;71.50;51.70;;;;;;;;;;5093973;28;20019;-75
2023/01/09 10:37:12;;;;;;;61.50;47.08;;;;;;;;;;5095161;28;20031;-73
2023/01/09 10:39:56;;;;;;;68.10;50.08;;;;;;;;;;5096366;28;20027;-72
2023/01/09 10:42:39;;;;;;;84.03;66.53;;;;;;;;;;5094950;28;20074;-72
2023/01/09 10:45:09;;;;;;;70.90;55.55;;;;;;;;;;5093757;28;20038;-75
2023/01/09 10:47:36;;;;;;;76.65;56.35;;;;;;;;;;5094741;28;20024;-74
2023/01/09 10:50:14;;;;;;;72.28;53.85;;;;;;;;;;5094239;28;20028;-72
2023/01/09 10:52:40;;;;;;;77.40;58.28;;;;;;;;;;5095808;28;20035;-72
2023/01/09 10:55:22;;;;;;;115.18;92.60;;;;;;;;;;5093403;28;20011;-73
2023/01/09 10:57:54;;;;;;;101.18;77.20;;;;;;;;;;5094115;28;20096;-73
2023/01/09 11:00:20;;;;;;;83.65;63.08;;;;;;;;;;5096169;28;20051;-73
2023/01/09 11:02:46;;;;;;;84.20;65.35;;;;;;;;;;5092949;28;20047;-74
2023/01/09 11:05:16;;;;;;;65.15;52.28;;;;;;;;;;5092946;28;20431;-74
2023/01/09 11:07:43;;;;;;;50.95;40.63;;;;;;;;;;5077878;28;20395;-75
2023/01/09 11:10:12;;;;;;;39.88;33.65;;;;;;;;;;5093279;28;20083;-73
2023/01/09 11:12:39;;;;;;;47.13;39.42;;;;;;;;;;5094050;28;20023;-74
2023/01/09 11:15:27;;;;;;;52.17;41.13;;;;;;;;;;5096172;28;20019;-73
2023/01/09 11:17:53;;;;;;;42.00;34.92;;;;;;;;;;5096450;28;20028;-74
2023/01/09 11:20:22;;;;;;;36.80;31.63;;;;;;;;;;5096674;28;20347;-73
2023/01/09 11:22:49;;;;;;;39.45;31.55;;;;;;;;;;5098652;28;20027;-72
2023/01/09 11:25:19;;;;;;;36.25;29.50;;;;;;;;;;5094977;28;20063;-78
2023/01/09 11:28:02;;;;;;;33.53;29.30;;;;;;;;;;5095266;28;20101;-72
2023/01/09 11:30:28;;;;;;;47.70;38.38;;;;;;;;;;5094475;28;20335;-72
2023/01/09 11:32:55;;;;;;;120.32;77.75;;;;;;;;;;5097987;28;20011;-73
2023/01/09 11:35:22;;;;;;;88.55;60.72;;;;;;;;;;5095337;28;20039;-72
2023/01/09 11:37:55;;;;;;;214.77;128.95;;;;;;;;;;5097920;28;20114;-72
2023/01/09 11:40:21;;;;;;;220.70;144.35;;;;;;;;;;5097882;28;20353;-73
2023/01/09 11:43:05;;;;;;;206.57;145.27;;;;;;;;;;5096218;28;20019;-73
2023/01/09 11:45:31;;;;;;;86.32;65.68;;;;;;;;;;5095807;28;20059;-74
2023/01/09 11:47:57;;;;;;;58.40;49.67;;;;;;;;;;5099091;28;20062;-73
2023/01/09 11:50:26;;;;;;;57.70;49.17;;;;;;;;;;5098116;28;20055;-73
2023/01/09 11:53:24;;;;;;;72.80;60.65;;;;;;;;;;5094814;28;20492;-73
2023/01/09 11:55:54;;;;;;;73.85;59.17;;;;;;;;;;4962188;28;20078;-73
2023/01/09 11:58:20;;;;;;;123.03;97.70;;;;;;;;;;4962967;28;20050;-72
2023/01/09 12:00:52;;;;;;;48.28;38.97;;;;;;;;;;4962631;28;20221;-73
2023/01/09 12:03:33;;;;;;;63.45;47.05;;;;;;;;;;4962309;28;20478;-72
2023/01/09 12:05:58;;;;;;;33.60;29.10;;;;;;;;;;4963799;28;20385;-74
2023/01/09 12:08:36;;;;;;;55.95;41.53;;;;;;;;;;4962435;28;20042;-73
2023/01/09 12:11:06;;;;;;;60.67;46.50;;;;;;;;;;4961713;28;20026;-77
2023/01/09 12:13:41;;;;;;;47.97;39.83;;;;;;;;;;4963234;28;20054;-73
2023/01/09 12:16:12;;;;;;;41.03;34.13;;;;;;;;;;4963081;28;20046;-75
2023/01/09 12:18:56;;;;;;;35.90;30.27;;;;;;;;;;4964043;28;20093;-75
2023/01/09 12:21:34;;;;;;;40.45;32.90;;;;;;;;;;4964841;28;20064;-74
2023/01/09 12:24:12;;;;;;;39.88;32.13;;;;;;;;;;4962370;28;20058;-74
2023/01/09 12:26:52;;;;;;;46.10;38.85;;;;;;;;;;4962040;28;20142;-74
2023/01/09 12:29:20;;;;;;;81.57;62.30;;;;;;;;;;4963964;28;20043;-75
2023/01/09 12:32:01;;;;;;;66.88;54.80;;;;;;;;;;5048234;28;20032;-77
2023/01/09 12:34:47;;;;;;;69.28;56.78;;;;;;;;;;5095634;28;20031;-74
2023/01/09 12:37:28;;;;;;;38.55;32.22;;;;;;;;;;5097192;28;20354;-73
2023/01/09 12:40:03;;;;;;;81.97;63.92;;;;;;;;;;5095512;28;20031;-75
2023/01/09 12:42:34;;;;;;;81.97;67.03;;;;;;;;;;5095841;28;20351;-74
2023/01/09 12:45:23;;;;;;;63.25;51.90;;;;;;;;;;5098541;28;20027;-75
2023/01/09 12:47:51;;;;;;;69.03;59.40;;;;;;;;;;5095632;28;20027;-78
2023/01/09 12:50:31;;;;;;;95.47;80.57;;;;;;;;;;5094807;28;20048;-74
2023/01/09 12:53:19;;;;;;;56.45;47.33;;;;;;;;;;5096587;28;20015;-73
2023/01/09 12:56:03;;;;;;;51.50;44.75;;;;;;;;;;5095537;28;20039;-74
2023/01/09 12:58:28;;;;;;;36.80;32.83;;;;;;;;;;5095561;28;20442;-76
2023/01/09 13:00:54;;;;;;;42.95;36.80;;;;;;;;;;5098475;28;20028;-74
2023/01/09 13:03:19;;;;;;;50.15;41.05;;;;;;;;;;5093157;28;20016;-75
2023/01/09 13:05:49;;;;;;;43.17;36.65;;;;;;;;;;5095962;28;20031;-74
2023/01/09 13:08:19;;;;;;;36.05;31.85;;;;;;;;;;5097014;28;20019;-74
2023/01/09 13:10:46;;;;;;;34.80;28.90;;;;;;;;;;5093139;28;20055;-74
2023/01/09 13:13:17;;;;;;;31.20;26.77;;;;;;;;;;5095402;28;20084;-74
2023/01/09 13:15:59;;;;;;;33.75;30.05;;;;;;;;;;5095822;28;20059;-76
2023/01/09 13:18:46;;;;;;;29.90;26.70;;;;;;;;;;5095899;28;20365;-76
2023/01/09 13:21:12;;;;;;;29.63;26.17;;;;;;;;;;5096795;28;20099;-74
2023/01/09 13:23:58;;;;;;;31.90;28.42;;;;;;;;;;5096738;28;20082;-75
2023/01/09 13:26:26;;;;;;;42.70;37.63;;;;;;;;;;5094630;28;20055;-73
2023/01/09 13:28:55;;;;;;;36.30;31.13;;;;;;;;;;5094396;28;20023;-75
2023/01/09 13:31:21;;;;;;;39.20;33.42;;;;;;;;;;5095735;28;20028;-74
2023/01/09 13:33:51;;;;;;;43.47;37.03;;;;;;;;;;5093271;28;20042;-74
2023/01/09 13:36:23;;;;;;;54.22;44.47;;;;;;;;;;5094706;28;20050;-74
2023/01/09 13:38:48;;;;;;;45.03;37.97;;;;;;;;;;5092664;28;20031;-74
2023/01/09 13:44:01;;;;;;;37.92;32.17;;;;;;;;;;5095047;28;20443;-74
2023/01/09 13:46:38;;;;;;;43.67;35.78;;;;;;;;;;5095244;28;20161;-74
2023/01/09 13:49:03;;;;;;;40.83;33.72;;;;;;;;;;5095841;28;20027;-76
2023/01/09 13:51:35;;;;;;;55.80;41.28;;;;;;;;;;5095335;28;20068;-74
2023/01/09 13:54:00;;;;;;;48.42;37.78;;;;;;;;;;5096531;28;20072;-74
2023/01/09 13:56:25;;;;;;;43.33;35.55;;;;;;;;;;5095664;28;20928;-75
2023/01/09 13:58:54;;;;;;;44.28;32.05;;;;;;;;;;5092711;28;20078;-75
2023/01/09 14:01:36;;;;;;;35.58;30.25;;;;;;;;;;5092382;28;20048;-74
2023/01/09 14:04:10;;;;;;;42.90;35.45;;;;;;;;;;5092577;28;20019;-74
2023/01/09 14:06:36;;;;;;;41.53;33.50;;;;;;;;;;5093615;28;20031;-75
2023/01/09 14:09:21;;;;;;;44.42;36.45;;;;;;;;;;5091400;28;20107;-74
2023/01/09 14:11:46;;;;;;;42.90;35.22;;;;;;;;;;5093447;28;20081;-74
2023/01/09 14:14:32;;;;;;;44.70;37.47;;;;;;;;;;5094047;28;20347;-77
2023/01/09 14:16:58;;;;;;;110.75;71.65;;;;;;;;;;5092892;28;20028;-74
2023/01/09 14:19:34;;;;;;;154.50;100.50;;;;;;;;;;5094641;28;20024;-74
2023/01/09 14:21:59;;;;;;;62.70;46.78;;;;;;;;;;5093195;28;20462;-74
2023/01/09 14:24:25;;;;;;;69.15;52.45;;;;;;;;;;5094569;28;20027;-74
2023/01/09 14:26:53;;;;;;;66.55;53.65;;;;;;;;;;5092765;28;20049;-74
2023/01/09 14:29:28;;;;;;;74.10;54.78;;;;;;;;;;5093014;28;20050;-74
2023/01/09 14:32:12;;;;;;;50.35;39.75;;;;;;;;;;5093907;28;20020;-74
2023/01/09 14:34:37;;;;;;;51.85;41.63;;;;;;;;;;5092401;28;20024;-74